Aviation Digital Data Service (ADDS)

Output produced by METARs form (1138 UTC 18 April 2015)
found at http://www.aviationweather.gov/adds/metars/
 
KFIG 181054Z AUTO 22004KT M1/4SM FG VV002 05/04 A3006 RMK AO2 SLP181 T00500044 $
KFIG 180954Z AUTO 00000KT 1/4SM FG VV001 04/03 A3005 RMK AO2 SLP177 T00440033 $
KFIG 180942Z AUTO 00000KT 1/4SM FG VV001 04/04 A3004 RMK AO2 T00440039 $
KFIG 180936Z AUTO 00000KT 1SM BR VV002 04/04 A3004 RMK AO2 T00440039 $
KFIG 180918Z AUTO 00000KT 1SM BR 06/05 A3004 RMK AO2 T00560050 $
KFIG 180905Z AUTO 00000KT 1/4SM FG 06/05 A3004 RMK AO2 T00560050 $
KFIG 180854Z AUTO 00000KT 1/4SM FG VV002 06/04 A3003 RMK AO2 SLP172 T00560044 55004
KFIG 180851Z AUTO 00000KT 3/4SM BR VV002 06/04 A3003 RMK AO2
KFIG 180849Z AUTO 00000KT 2 1/2SM BR BKN002 06/04 A3003 RMK AO2
KFIG 180758Z AUTO 00000KT 3SM BR SCT002 06/06 A3002 RMK AO2 T00610056
KFIG 180756Z AUTO 00000KT 1 1/2SM BR SCT002 06/05 A3002 RMK AO2 T00610050
KFIG 180754Z AUTO 00000KT 3/4SM BR VV002 06/05 A3002 RMK AO2 SLP167 T00610050
KFIG 180748Z AUTO 35003KT 1/2SM FG VV002 06/05 A3003 RMK AO2
KFIG 180736Z AUTO 00000KT 1/4SM FG VV003 07/06 A3003 RMK AO2 T00670056
KFIG 180727Z AUTO 00000KT 1/2SM FG VV004 07/06 A3003 RMK AO2 T00720061
KFIG 180718Z AUTO 00000KT 1 3/4SM BR CLR 07/06 A3003 RMK AO2 T00670056
KFIG 180654Z AUTO 00000KT 4SM BR CLR 08/07 A3003 RMK AO2 SLP171 T00780067
KFIG 180554Z AUTO 00000KT 10SM CLR 09/07 A3004 RMK AO2 SLP173 T00940067 10167 20089 50001
KFIG 180454Z AUTO 31003KT 10SM CLR 10/08 A3005 RMK AO2 SLP178 T01000078 401890089
KFIG 180354Z AUTO 00000KT 10SM CLR 12/08 A3005 RMK AO2 SLP176 T01170083
KFIG 180254Z AUTO 20003KT 10SM CLR 12/08 A3004 RMK AO2 SLP173 T01220083 50011
KFIG 180154Z AUTO 00000KT 10SM CLR 13/08 A3004 RMK AO2 SLP174 T01330083
KFIG 180054Z AUTO 26004KT 10SM CLR 16/08 A3002 RMK AO2 SLP166 T01560083
KFIG 172354Z AUTO 27004KT 10SM CLR 17/08 A3001 RMK AO2 SLP161 T01670083 10189 20167 53001
KFIG 172254Z AUTO 28006KT 10SM CLR 18/08 A3000 RMK AO2 SLP157 T01830083
KFIG 172154Z AUTO 28007KT 10SM FEW048 18/08 A3000 RMK AO2 SLP158 T01830083
KFIG 172054Z AUTO 28011KT 10SM FEW029 SCT041 SCT050 18/11 A3000 RMK AO2 SLP159 T01780106 56014
KFIG 172002Z AUTO 29011KT 10SM FEW025 SCT047 BKN055 18/11 A3001 RMK AO2 T01780106
KFIG 171954Z AUTO 30010KT 10SM BKN026 BKN047 OVC055 18/11 A3002 RMK AO2 SLP164 T01780106
KFIG 171931Z AUTO 28009KT 10SM BKN026 BKN030 OVC050 19/12 A3002 RMK AO2 T01890117
KFIG 171854Z AUTO 26008KT 10SM FEW027 SCT039 BKN050 17/11 A3003 RMK AO2 SLP168 T01720111
KFIG 171846Z AUTO 29010KT 10SM FEW020 SCT027 BKN038 18/12 A3003 RMK AO2 T01780117
KFIG 171754Z AUTO 26008KT 10SM BKN019 BKN025 OVC034 17/12 A3005 RMK AO2 SLP175 60000 T01670117 10167 20106 56007
KFIG 171732Z AUTO 24009G16KT 200V270 10SM BKN016 BKN036 OVC055 16/12 A3005 RMK AO2 T01610117
KFIG 171654Z AUTO 24009KT 10SM SCT011 OVC060 15/12 A3005 RMK AO2 SLP177 T01500117
KFIG 171629Z AUTO 24008KT 10SM BKN011 OVC060 15/12 A3005 RMK AO2 T01500117
KFIG 171554Z AUTO 23006KT 10SM BKN009 OVC013 14/12 A3006 RMK AO2 CIG 007V011 SLP181 T01390117
KFIG 171454Z AUTO 22003KT 9SM OVC007 13/12 A3007 RMK AO2 SLP185 60000 T01280117 55002
KFIG 171354Z AUTO 21004KT 10SM OVC008 12/11 A3007 RMK AO2 SLP184 T01170111
KFIG 171336Z AUTO 22005KT 7SM OVC009 12/11 A3006 RMK AO2 T01170106
KFIG 171315Z AUTO 20005KT 5SM BR SCT003 OVC010 11/10 A3006 RMK AO2 T01110100
KFIG 171254Z AUTO 20005KT 4SM BR BKN003 OVC012 11/10 A3006 RMK AO2 RAE1155 SLP183 P0000 T01060100
KFIG 171235Z AUTO 20004KT 3SM BR BKN003 OVC012 11/10 A3007 RMK AO2 RAE1155 P0000 T01060100
KFIG 171221Z AUTO 19005KT 2 1/2SM BR SCT003 OVC012 10/09 A3007 RMK AO2 RAE1155 P0000 T01000094
KFIG 171213Z AUTO 20005KT 2SM BR BKN003 OVC012 10/09 A3008 RMK AO2 RAE1155 P0000 T01000094
KFIG 171154Z AUTO 20003KT 2 1/2SM -RA BR SCT003 OVC013 10/09 A3008 RMK AO2 RAB00E16B45 SLP188 P0000 60011 70038 T01000094 10100 20089 50002
KFIG 171149Z AUTO 20004KT 2 1/2SM -RA BR FEW003 OVC014 10/09 A3008 RMK AO2 RAB00E16B45 P0000
KFIG 171139Z AUTO 20003KT 2 1/2SM BR OVC014 10/09 A3008 RMK AO2 RAB00E16 P0000 T01000094
KFIG 171127Z AUTO 20003KT 1 1/4SM BR OVC014 10/09 A3007 RMK AO2 RAB00E16 P0000 T01000089
KFIG 171120Z AUTO 20003KT 3/4SM BR OVC014 09/09 A3007 RMK AO2 RAB00E16 P0000 T00940089
KFIG 171101Z AUTO 19003KT 1/4SM -RA FG OVC014 09/09 A3007 RMK AO2 RAB00 P0000 T00940089
KFIG 171054Z AUTO 19003KT 1/2SM FG OVC014 09/09 A3007 RMK AO2 RAE19B26E42 SLP184 P0001 T00940089
KFIG 171047Z AUTO 19003KT 3/4SM BR OVC016 09/09 A3007 RMK AO2 RAE19B26E42 P0001 T00940089
KFIG 171038Z AUTO 00000KT 1SM -RA BR OVC016 09/09 A3007 RMK AO2 RAE19B26 P0001 T00940089
KFIG 171029Z AUTO 00000KT 3/4SM -RA BR OVC016 09/09 A3007 RMK AO2 RAE19B26 P0001 T00940089
KFIG 171019Z AUTO 18003KT 1 3/4SM BR OVC016 09/09 A3007 RMK AO2 RAE19 P0000 T00940089
KFIG 170954Z AUTO 00000KT 5SM -RA BR SCT014 OVC020 09/09 A3007 RMK AO2 RAB17 SLP182 P0005 T00940089
KFIG 170854Z AUTO 36003KT 10SM OVC026 09/08 A3007 RMK AO2 RAB09E34 SLP183 P0000 60005 T00940083 58008
KFIG 170804Z AUTO 00000KT 10SM OVC023 09/08 A3007 RMK AO2 T00890083
KFIG 170754Z AUTO 00000KT 2SM BR OVC023 09/08 A3008 RMK AO2 RAE23 SLP185 P0002 T00890083
KFIG 170734Z AUTO 34003KT 4SM BR OVC024 09/08 A3008 RMK AO2 RAE23 P0002 T00890083
KFIG 170722Z AUTO 00000KT 1 3/4SM -RA BR BKN025 BKN031 OVC050 09/08 A3008 RMK AO2 VIS 3/4V5 P0002 T00890083
KFIG 170718Z AUTO 00000KT 3SM -RA BR BKN025 BKN031 OVC050 09/08 A3008 RMK AO2 P0002 T00890083
KFIG 170713Z AUTO 00000KT 1 3/4SM -RA BR BKN027 BKN033 OVC048 09/08 A3009 RMK AO2 VIS 1V5 P0002 T00890083
KFIG 170704Z AUTO 00000KT 1/2SM -RA FG FEW027 BKN033 OVC050 09/08 A3009 RMK AO2 P0001 T00890083
KFIG 170656Z AUTO 00000KT 1 3/4SM -RA BR SCT029 BKN035 OVC046 09/08 A3009 RMK AO2 P0000 T00890083
KFIG 170654Z AUTO VRB03KT 5SM -RA BR FEW029 BKN035 OVC044 09/08 A3009 RMK AO2 RAB25 SLP191 P0003 T00940083
KFIG 170652Z AUTO 31003KT 9SM -RA FEW029 BKN035 OVC044 09/08 A3009 RMK AO2 RAB25 P0003
KFIG 170644Z AUTO 18004KT 2SM RA BR BKN035 OVC046 09/08 A3009 RMK AO2 RAB25 P0002 T00890083
KFIG 170635Z AUTO 00000KT 3/4SM RA BR BKN035 OVC046 09/08 A3010 RMK AO2 RAB25 P0001 T00890083
KFIG 170623Z AUTO 34004KT 1 3/4SM BR OVC035 09/08 A3011 RMK AO2 T00890078
KFIG 170612Z AUTO 00000KT 4SM BR SCT027 OVC033 09/08 A3011 RMK AO2 T00890078
KFIG 170605Z AUTO 00000KT 2 1/2SM BR OVC029 09/08 A3011 RMK AO2 T00890078
KFIG 170554Z AUTO 00000KT 1 3/4SM BR BKN029 OVC039 09/08 A3012 RMK AO2 RAE54 SLP198 P0012 60025 T00940083 10100 20083 56025
KFIG 170550Z AUTO 00000KT 1 3/4SM -RA BR SCT027 BKN032 OVC041 09/08 A3012 RMK AO2 P0012
KFIG 170542Z AUTO 00000KT 4SM -RA BR BKN032 OVC041 09/08 A3012 RMK AO2 P0012 T00890083
KFIG 170531Z AUTO 19003KT 2 1/2SM +RA BR BKN034 OVC042 09/08 A3012 RMK AO2 P0010 T00940083
KFIG 170454Z AUTO 00000KT 7SM -RA OVC034 09/08 A3014 RMK AO2 RAB34 SLPNO P0000 T00890078
KFIG 170406Z AUTO 00000KT 10SM SCT028 OVC034 09/08 A3016 RMK AO2 T00890078
KFIG 170354Z AUTO 36003KT 8SM BKN028 OVC034 09/08 A3016 RMK AO2 RAB41E53 SLPNO P0001 T00890078
KFIG 170315Z AUTO 00000KT 3SM BR OVC029 08/08 A3018 RMK AO2 T00830078
KFIG 170306Z AUTO 34003KT 1/2SM FG OVC029 08/08 A3019 RMK AO2 T00830078
KFIG 170254Z AUTO 35003KT 1/2SM FG OVC030 08/08 A3019 RMK AO2 RAE23 SLPNO P0000 60012 T00830078 58013
KFIG 170246Z AUTO 36004KT 1 3/4SM BR OVC030 08/08 A3020 RMK AO2 RAE23 P0000 T00830078
KFIG 170235Z AUTO 00000KT 10SM OVC031 08/08 A3020 RMK AO2 RAE23 P0000 T00830078
KFIG 170227Z AUTO 00000KT 2SM BR OVC031 09/08 A3020 RMK AO2 RAE23 P0000 T00890078
KFIG 170219Z AUTO 00000KT 3/4SM -RA BR OVC031 08/08 A3021 RMK AO2 P0000 T00830078
KFIG 170209Z AUTO 00000KT 1 1/2SM -RA BR OVC032 09/07 A3021 RMK AO2 P0000 T00890072
KFIG 170154Z AUTO 00000KT 8SM -RA OVC034 09/07 A3022 RMK AO2 SLPNO P0007 T00890067
KFIG 170054Z AUTO 00000KT 10SM -RA OVC039 09/06 A3023 RMK AO2 SLPNO P0005 T00940061
KFIG 162354Z AUTO 21008KT 7SM RA OVC042 10/06 A3023 RMK AO2 SLPNO P0002 60002 T01000061 10200 20100 53002